Time;durP1;ratioP1;P1;durP2;ratioP2;P2;SDS_P1;SDS_P2;PMS_P1;PMS_P2;Temp;Humidity;BMP_temperature;BMP_pressure;BME280_temperature;BME280_humidity;BME280_pressure;Samples;Min_cycle;Max_cycle;Signal;HPM_P1;HPM_P2
2022/01/15 00:00:34;;;;;;;55.93;27.47;;;;;;;;;;5039940;28;20224;-53
2022/01/15 00:03:00;;;;;;;50.83;27.13;;;;;;;;;;5030873;28;20797;-53
2022/01/15 00:05:26;;;;;;;50.73;26.13;;;;;;;;;;5030989;28;20233;-54
2022/01/15 00:07:52;;;;;;;51.80;26.27;;;;;;;;;;5040941;28;20689;-54
2022/01/15 00:10:20;;;;;;;54.43;26.50;;;;;;;;;;5040034;28;20282;-53
2022/01/15 00:12:46;;;;;;;52.87;27.07;;;;;;;;;;5035270;28;20661;-53
2022/01/15 00:15:17;;;;;;;52.27;27.43;;;;;;;;;;5033142;28;20234;-54
2022/01/15 00:18:02;;;;;;;52.17;26.07;;;;;;;;;;5037084;28;20715;-53
2022/01/15 00:20:28;;;;;;;53.67;26.53;;;;;;;;;;5042968;28;20287;-53
2022/01/15 00:22:54;;;;;;;53.83;26.90;;;;;;;;;;5029976;28;20685;-53
2022/01/15 00:25:21;;;;;;;52.60;27.63;;;;;;;;;;5040857;28;20244;-53
2022/01/15 00:27:47;;;;;;;51.37;26.37;;;;;;;;;;5035004;28;20290;-53
2022/01/15 00:30:13;;;;;;;52.67;26.33;;;;;;;;;;5039893;28;20239;-53
2022/01/15 00:32:39;;;;;;;52.70;25.87;;;;;;;;;;5041139;28;20231;-53
2022/01/15 00:35:05;;;;;;;55.20;27.00;;;;;;;;;;5033477;28;20227;-54
2022/01/15 00:37:32;;;;;;;54.93;25.77;;;;;;;;;;5038155;28;20611;-53
2022/01/15 00:40:01;;;;;;;53.07;25.93;;;;;;;;;;5035505;28;20582;-54
2022/01/15 00:42:28;;;;;;;48.57;25.40;;;;;;;;;;5039448;28;20731;-53
2022/01/15 00:44:56;;;;;;;54.47;26.17;;;;;;;;;;5025151;28;20239;-53
2022/01/15 00:47:22;;;;;;;58.50;26.80;;;;;;;;;;5040034;28;20223;-53
2022/01/15 00:49:48;;;;;;;52.50;25.33;;;;;;;;;;5036472;28;20263;-53
2022/01/15 00:52:14;;;;;;;52.13;26.40;;;;;;;;;;5043189;28;20236;-53
2022/01/15 00:54:40;;;;;;;57.97;27.73;;;;;;;;;;5042420;28;20219;-54
2022/01/15 00:57:06;;;;;;;51.27;26.97;;;;;;;;;;5040553;28;20704;-54
2022/01/15 00:59:32;;;;;;;51.50;26.87;;;;;;;;;;5033839;28;20242;-53
2022/01/15 01:01:57;;;;;;;58.30;27.03;;;;;;;;;;5037522;28;20268;-54
2022/01/15 01:04:23;;;;;;;48.30;25.23;;;;;;;;;;5041655;28;20236;-53
2022/01/15 01:06:49;;;;;;;50.77;25.40;;;;;;;;;;5042262;28;20222;-54
2022/01/15 01:09:15;;;;;;;49.03;24.67;;;;;;;;;;5040688;28;20536;-53
2022/01/15 01:11:51;;;;;;;46.30;23.93;;;;;;;;;;5046282;28;20984;-53
2022/01/15 01:25:40;;;;;;;42.97;22.43;;;;;;;;;;5013778;28;20224;-53
2022/01/15 01:28:14;;;;;;;45.53;22.90;;;;;;;;;;5043906;28;20795;-53
2022/01/15 01:31:05;;;;;;;45.40;23.30;;;;;;;;;;5037060;28;20224;-53
2022/01/15 01:36:21;;;;;;;46.10;22.70;;;;;;;;;;5040833;28;20631;-53
2022/01/15 01:38:54;;;;;;;43.23;22.07;;;;;;;;;;5035749;28;20230;-53
2022/01/15 01:41:21;;;;;;;39.43;22.03;;;;;;;;;;5046690;28;20240;-53
2022/01/15 01:43:54;;;;;;;41.43;22.23;;;;;;;;;;5048439;28;20237;-53
2022/01/15 01:48:49;;;;;;;44.60;21.50;;;;;;;;;;5041161;28;20228;-54
2022/01/15 01:51:23;;;;;;;40.47;21.33;;;;;;;;;;5038393;28;20307;-53
2022/01/15 01:53:49;;;;;;;40.87;20.17;;;;;;;;;;5038346;28;20241;-54
2022/01/15 01:56:15;;;;;;;42.80;20.90;;;;;;;;;;5038412;28;20297;-53
2022/01/15 01:58:41;;;;;;;42.37;21.33;;;;;;;;;;5045019;28;20232;-54
2022/01/15 02:01:07;;;;;;;41.83;21.37;;;;;;;;;;5043566;28;20259;-53
2022/01/15 02:03:33;;;;;;;41.97;19.73;;;;;;;;;;5046133;28;20231;-54
2022/01/15 02:05:59;;;;;;;43.17;20.13;;;;;;;;;;5033837;28;20239;-53
2022/01/15 02:08:25;;;;;;;39.20;20.07;;;;;;;;;;5028319;28;20690;-54
2022/01/15 02:10:51;;;;;;;38.37;20.13;;;;;;;;;;5034741;28;20326;-53
2022/01/15 02:13:18;;;;;;;41.73;20.60;;;;;;;;;;5028986;28;20311;-54
2022/01/15 02:15:44;;;;;;;38.33;20.07;;;;;;;;;;5043935;28;20228;-54
2022/01/15 02:18:11;;;;;;;37.80;19.50;;;;;;;;;;5036816;28;20243;-54
2022/01/15 02:25:58;;;;;;;38.57;19.10;;;;;;;;;;5038810;28;20230;-53
2022/01/15 02:28:25;;;;;;;41.67;21.27;;;;;;;;;;5031437;28;20576;-53
2022/01/15 02:30:51;;;;;;;38.43;20.40;;;;;;;;;;5034108;28;20709;-53
2022/01/15 02:33:17;;;;;;;45.63;21.30;;;;;;;;;;5023878;28;20239;-52
2022/01/15 02:35:43;;;;;;;39.50;20.53;;;;;;;;;;5028331;28;20246;-54
2022/01/15 02:38:11;;;;;;;43.57;20.10;;;;;;;;;;5032023;28;20228;-54
2022/01/15 02:40:37;;;;;;;40.20;19.93;;;;;;;;;;5010509;28;21699;-53
2022/01/15 02:43:04;;;;;;;36.63;19.70;;;;;;;;;;5026857;28;20317;-54
2022/01/15 02:45:32;;;;;;;42.70;21.30;;;;;;;;;;5028439;28;21018;-54
2022/01/15 02:48:01;;;;;;;43.07;21.87;;;;;;;;;;5029135;28;20231;-54
2022/01/15 02:50:27;;;;;;;43.77;21.30;;;;;;;;;;5021295;28;20708;-53
2022/01/15 02:52:53;;;;;;;42.77;20.27;;;;;;;;;;5023691;28;20300;-53
2022/01/15 02:55:18;;;;;;;45.73;20.27;;;;;;;;;;5006760;28;20329;-53
2022/01/15 02:57:44;;;;;;;43.70;20.63;;;;;;;;;;5030570;28;20700;-54
2022/01/15 03:00:11;;;;;;;41.63;20.87;;;;;;;;;;5033060;28;20628;-53
2022/01/15 03:02:37;;;;;;;39.47;20.30;;;;;;;;;;5025142;28;20235;-53
2022/01/15 03:05:03;;;;;;;36.43;20.30;;;;;;;;;;5022649;28;20242;-53
2022/01/15 03:07:29;;;;;;;37.93;18.67;;;;;;;;;;5028942;28;21316;-54
2022/01/15 03:09:55;;;;;;;36.43;18.43;;;;;;;;;;5023681;28;20237;-53
2022/01/15 03:12:21;;;;;;;35.20;18.47;;;;;;;;;;5033674;28;21106;-54
2022/01/15 03:14:48;;;;;;;37.70;19.73;;;;;;;;;;5031067;28;20932;-54
2022/01/15 03:17:14;;;;;;;38.20;18.63;;;;;;;;;;5020571;28;20307;-53
2022/01/15 03:19:40;;;;;;;43.07;19.63;;;;;;;;;;5029498;28;20697;-53
2022/01/15 03:22:06;;;;;;;38.13;19.13;;;;;;;;;;5032393;28;20593;-53
2022/01/15 03:24:32;;;;;;;37.80;18.70;;;;;;;;;;5032930;28;20576;-53
2022/01/15 03:26:58;;;;;;;36.97;18.43;;;;;;;;;;5019692;28;20666;-53
2022/01/15 03:29:24;;;;;;;33.33;17.57;;;;;;;;;;5029148;28;20235;-53
2022/01/15 03:31:50;;;;;;;42.90;19.63;;;;;;;;;;5037722;28;20477;-53
2022/01/15 03:34:16;;;;;;;38.60;18.73;;;;;;;;;;5034137;28;20286;-54
2022/01/15 03:36:42;;;;;;;35.43;18.37;;;;;;;;;;5028590;28;20234;-53
2022/01/15 03:39:08;;;;;;;33.27;18.37;;;;;;;;;;5037644;28;20231;-54
2022/01/15 03:41:34;;;;;;;37.00;18.47;;;;;;;;;;5030435;28;20597;-53
2022/01/15 03:44:00;;;;;;;37.13;18.07;;;;;;;;;;5035066;28;20314;-54
2022/01/15 03:46:26;;;;;;;36.73;18.83;;;;;;;;;;5027041;28;20612;-54
2022/01/15 03:48:53;;;;;;;35.97;17.53;;;;;;;;;;5028116;28;20248;-53
2022/01/15 03:51:19;;;;;;;36.30;17.63;;;;;;;;;;5029326;28;20224;-53
2022/01/15 03:53:45;;;;;;;34.70;18.03;;;;;;;;;;5012147;28;20735;-54
2022/01/15 03:56:11;;;;;;;37.83;17.53;;;;;;;;;;5028326;28;20708;-53
2022/01/15 03:58:37;;;;;;;35.10;18.10;;;;;;;;;;5031891;28;20242;-54
2022/01/15 04:01:03;;;;;;;32.80;17.70;;;;;;;;;;5021814;28;20341;-54
2022/01/15 04:03:29;;;;;;;34.57;17.70;;;;;;;;;;5030327;28;20696;-53
2022/01/15 04:05:55;;;;;;;33.30;16.67;;;;;;;;;;5031148;28;20230;-54
2022/01/15 04:08:21;;;;;;;32.07;16.67;;;;;;;;;;5035731;28;20227;-53
2022/01/15 04:10:47;;;;;;;32.73;16.97;;;;;;;;;;5031859;28;20239;-53
2022/01/15 04:13:15;;;;;;;31.07;16.70;;;;;;;;;;5032760;28;20617;-53
2022/01/15 04:15:41;;;;;;;30.30;16.00;;;;;;;;;;5029662;28;20310;-54
2022/01/15 04:18:07;;;;;;;31.60;15.90;;;;;;;;;;5027339;28;20235;-53
2022/01/15 04:20:33;;;;;;;30.80;16.63;;;;;;;;;;5028162;28;20231;-53
2022/01/15 04:22:59;;;;;;;30.93;15.57;;;;;;;;;;5032180;28;20595;-54
2022/01/15 04:25:26;;;;;;;32.60;16.07;;;;;;;;;;5029229;28;21333;-53
2022/01/15 04:27:52;;;;;;;33.67;16.07;;;;;;;;;;5027786;28;20237;-53
2022/01/15 04:30:18;;;;;;;29.60;16.67;;;;;;;;;;5030982;28;20241;-54
2022/01/15 04:32:44;;;;;;;29.20;15.70;;;;;;;;;;5013619;28;20235;-54
2022/01/15 04:35:10;;;;;;;27.73;15.73;;;;;;;;;;5026856;28;20267;-53
2022/01/15 04:37:43;;;;;;;26.90;14.77;;;;;;;;;;5034178;28;20262;-54
2022/01/15 04:40:10;;;;;;;28.60;15.33;;;;;;;;;;5035517;28;20712;-54
2022/01/15 04:42:36;;;;;;;27.83;15.17;;;;;;;;;;5026816;28;20236;-54
2022/01/15 04:45:03;;;;;;;26.33;15.20;;;;;;;;;;5030690;28;21115;-53
2022/01/15 04:47:29;;;;;;;28.30;15.93;;;;;;;;;;5032101;28;20310;-53
2022/01/15 04:49:55;;;;;;;29.33;15.00;;;;;;;;;;5000430;28;20243;-53
2022/01/15 04:52:24;;;;;;;25.33;15.07;;;;;;;;;;5033434;28;20250;-53
2022/01/15 04:54:50;;;;;;;30.47;14.83;;;;;;;;;;5022669;28;20255;-54
2022/01/15 04:57:16;;;;;;;26.97;15.33;;;;;;;;;;5029950;28;20381;-53
2022/01/15 04:59:42;;;;;;;28.00;15.87;;;;;;;;;;5028954;28;20561;-53
2022/01/15 05:02:08;;;;;;;28.30;15.63;;;;;;;;;;5021296;28;20476;-53
2022/01/15 05:04:34;;;;;;;26.83;15.20;;;;;;;;;;5036935;28;20466;-53
2022/01/15 05:07:00;;;;;;;30.33;15.87;;;;;;;;;;5030861;28;20228;-53
2022/01/15 05:09:26;;;;;;;28.50;15.93;;;;;;;;;;5038413;28;20224;-53
2022/01/15 05:12:23;;;;;;;29.13;15.37;;;;;;;;;;5031889;28;20367;-53
2022/01/15 05:14:41;;;;;;;29.23;16.57;;;;;;;;;;5030029;28;20242;-53
2022/01/15 05:17:07;;;;;;;25.17;15.17;;;;;;;;;;5034565;28;20228;-53
2022/01/15 05:19:33;;;;;;;26.53;15.87;;;;;;;;;;5033904;28;20731;-54
2022/01/15 05:22:00;;;;;;;26.50;15.03;;;;;;;;;;5032382;28;20241;-53
2022/01/15 05:24:27;;;;;;;29.67;16.60;;;;;;;;;;5024568;28;20576;-54
2022/01/15 05:26:54;;;;;;;31.00;16.37;;;;;;;;;;5032084;28;20317;-53
2022/01/15 05:29:20;;;;;;;26.77;15.70;;;;;;;;;;5031682;28;20256;-53
2022/01/15 05:31:46;;;;;;;26.83;15.10;;;;;;;;;;5039156;28;20934;-54
2022/01/15 05:34:12;;;;;;;26.83;16.27;;;;;;;;;;5038772;28;20230;-54
2022/01/15 05:36:39;;;;;;;28.77;16.17;;;;;;;;;;5037849;28;20232;-54
2022/01/15 05:39:05;;;;;;;27.47;16.13;;;;;;;;;;5037582;28;20224;-53
2022/01/15 05:41:31;;;;;;;29.73;16.90;;;;;;;;;;5037217;27;20242;-54
2022/01/15 05:44:01;;;;;;;26.17;15.23;;;;;;;;;;5038315;28;20293;-54
2022/01/15 05:46:27;;;;;;;25.37;14.93;;;;;;;;;;4997756;28;20239;-53
2022/01/15 05:48:53;;;;;;;24.57;14.73;;;;;;;;;;5016929;28;20238;-53
2022/01/15 05:51:19;;;;;;;24.50;15.40;;;;;;;;;;5003255;28;20289;-53
2022/01/15 05:53:45;;;;;;;23.60;15.53;;;;;;;;;;5014411;28;20220;-53
2022/01/15 05:56:11;;;;;;;24.03;15.30;;;;;;;;;;5019256;28;20228;-53
2022/01/15 05:58:37;;;;;;;22.83;15.43;;;;;;;;;;5008895;28;21005;-54
2022/01/15 06:01:03;;;;;;;25.43;15.73;;;;;;;;;;5003864;28;20714;-53
2022/01/15 06:03:29;;;;;;;22.30;15.27;;;;;;;;;;5014920;28;20322;-54
2022/01/15 06:05:55;;;;;;;26.00;15.30;;;;;;;;;;5021045;28;20529;-53
2022/01/15 06:08:21;;;;;;;23.17;14.70;;;;;;;;;;5022996;28;20232;-53
2022/01/15 06:10:47;;;;;;;23.40;14.67;;;;;;;;;;5030765;28;20244;-53
2022/01/15 06:13:13;;;;;;;23.77;15.23;;;;;;;;;;5023651;28;20227;-53
2022/01/15 06:15:39;;;;;;;21.87;14.97;;;;;;;;;;5018938;28;20297;-53
2022/01/15 06:18:05;;;;;;;23.07;14.73;;;;;;;;;;5017059;28;20942;-53
2022/01/15 06:20:31;;;;;;;25.00;15.13;;;;;;;;;;5016723;28;20235;-54
2022/01/15 06:22:57;;;;;;;24.63;14.77;;;;;;;;;;5017558;28;20251;-54
2022/01/15 06:25:23;;;;;;;23.93;15.10;;;;;;;;;;5004822;28;20282;-53
2022/01/15 06:27:49;;;;;;;24.60;15.10;;;;;;;;;;5014589;28;21090;-53
2022/01/15 06:30:15;;;;;;;20.77;14.20;;;;;;;;;;5005878;28;20235;-53
2022/01/15 06:32:41;;;;;;;25.87;15.73;;;;;;;;;;5016375;28;20891;-53
2022/01/15 06:35:08;;;;;;;23.13;15.07;;;;;;;;;;5016645;28;20236;-53
2022/01/15 06:37:34;;;;;;;24.20;15.63;;;;;;;;;;5025513;28;20231;-53
2022/01/15 06:40:00;;;;;;;23.37;14.83;;;;;;;;;;5012743;28;20295;-53
2022/01/15 06:42:26;;;;;;;22.97;15.00;;;;;;;;;;5020451;28;20318;-53
2022/01/15 06:44:52;;;;;;;22.17;13.97;;;;;;;;;;5015998;28;20719;-53
2022/01/15 06:47:18;;;;;;;24.03;15.20;;;;;;;;;;5011668;28;20384;-53
2022/01/15 06:49:44;;;;;;;21.90;14.67;;;;;;;;;;5006867;28;20240;-54
2022/01/15 06:52:09;;;;;;;21.17;14.53;;;;;;;;;;5008240;28;20914;-53
2022/01/15 06:54:35;;;;;;;22.80;14.93;;;;;;;;;;5009280;28;20232;-54
2022/01/15 06:57:01;;;;;;;21.60;14.67;;;;;;;;;;5017923;28;20232;-53
2022/01/15 06:59:27;;;;;;;21.87;14.60;;;;;;;;;;5012531;28;20230;-53
2022/01/15 07:01:53;;;;;;;20.87;13.87;;;;;;;;;;5008723;28;20247;-54
2022/01/15 07:04:19;;;;;;;22.53;14.40;;;;;;;;;;5012428;28;20228;-54
2022/01/15 07:06:45;;;;;;;24.70;13.77;;;;;;;;;;5004962;28;20551;-53
2022/01/15 07:09:11;;;;;;;21.37;13.40;;;;;;;;;;5015754;28;20240;-53
2022/01/15 07:11:37;;;;;;;22.37;14.03;;;;;;;;;;5014138;28;20582;-54
2022/01/15 07:14:03;;;;;;;21.00;13.83;;;;;;;;;;5015165;28;20522;-54
2022/01/15 07:16:29;;;;;;;21.47;13.77;;;;;;;;;;5015901;28;20669;-53
2022/01/15 07:18:55;;;;;;;18.87;14.10;;;;;;;;;;5016388;28;20257;-53
2022/01/15 07:21:21;;;;;;;18.20;13.67;;;;;;;;;;5014793;28;20231;-54
2022/01/15 07:23:47;;;;;;;18.27;13.67;;;;;;;;;;5019141;28;20255;-53
2022/01/15 07:26:13;;;;;;;20.30;14.27;;;;;;;;;;5007747;28;20956;-53
2022/01/15 07:28:39;;;;;;;20.30;14.40;;;;;;;;;;5011787;28;20243;-53
2022/01/15 07:31:05;;;;;;;20.27;14.40;;;;;;;;;;5007351;28;20232;-53
2022/01/15 07:33:31;;;;;;;21.33;14.17;;;;;;;;;;5010963;28;20263;-53
2022/01/15 07:35:57;;;;;;;19.27;13.60;;;;;;;;;;5014876;28;20708;-53
2022/01/15 07:38:23;;;;;;;20.33;14.13;;;;;;;;;;5010942;28;20232;-54
2022/01/15 07:40:49;;;;;;;18.87;13.83;;;;;;;;;;5017893;28;20587;-54
2022/01/15 07:43:15;;;;;;;19.80;13.20;;;;;;;;;;5005931;28;20232;-54
2022/01/15 07:45:41;;;;;;;18.90;14.27;;;;;;;;;;5026675;28;20319;-53
2022/01/15 07:48:07;;;;;;;20.63;15.03;;;;;;;;;;5034102;28;20438;-53
2022/01/15 07:50:33;;;;;;;20.87;14.50;;;;;;;;;;5031882;28;20286;-53
2022/01/15 07:52:59;;;;;;;18.90;14.33;;;;;;;;;;5024874;28;20236;-53
2022/01/15 07:55:25;;;;;;;21.30;14.30;;;;;;;;;;5029578;28;20731;-53
2022/01/15 07:57:51;;;;;;;17.90;13.60;;;;;;;;;;5041518;28;20235;-53
2022/01/15 08:00:17;;;;;;;17.37;12.60;;;;;;;;;;5028874;28;20597;-54
2022/01/15 08:02:43;;;;;;;17.03;13.17;;;;;;;;;;5022595;28;20980;-54
2022/01/15 08:05:09;;;;;;;16.57;12.97;;;;;;;;;;5022003;28;20247;-53
2022/01/15 08:07:35;;;;;;;19.77;14.17;;;;;;;;;;5034082;28;20262;-53
2022/01/15 08:10:04;;;;;;;17.67;13.43;;;;;;;;;;5044078;28;20215;-53
2022/01/15 08:12:30;;;;;;;17.20;13.10;;;;;;;;;;5042113;28;20373;-53
2022/01/15 08:14:56;;;;;;;18.33;13.90;;;;;;;;;;5037906;28;20289;-54
2022/01/15 08:17:22;;;;;;;16.63;12.83;;;;;;;;;;5037859;28;20278;-54
2022/01/15 08:19:48;;;;;;;15.47;12.60;;;;;;;;;;5037390;28;20236;-53
2022/01/15 08:22:14;;;;;;;22.10;13.20;;;;;;;;;;5035193;28;20243;-54
2022/01/15 08:24:40;;;;;;;16.20;12.37;;;;;;;;;;5031719;28;20235;-53
2022/01/15 08:27:06;;;;;;;14.50;12.13;;;;;;;;;;5034493;28;20231;-54
2022/01/15 08:29:32;;;;;;;17.47;13.13;;;;;;;;;;5033534;28;20230;-54
2022/01/15 08:31:58;;;;;;;15.73;12.17;;;;;;;;;;5038510;28;20302;-53
2022/01/15 08:34:24;;;;;;;15.33;12.30;;;;;;;;;;5043181;28;21909;-53
2022/01/15 08:36:50;;;;;;;15.67;12.23;;;;;;;;;;5036599;28;20377;-54
2022/01/15 08:39:16;;;;;;;16.93;12.40;;;;;;;;;;5040032;28;20512;-54
2022/01/15 08:41:48;;;;;;;15.53;12.23;;;;;;;;;;5033812;28;20361;-54
2022/01/15 08:44:14;;;;;;;15.00;12.37;;;;;;;;;;5040908;28;20232;-53
2022/01/15 08:46:40;;;;;;;13.30;10.93;;;;;;;;;;5032968;28;20231;-53
2022/01/15 08:49:06;;;;;;;13.53;11.27;;;;;;;;;;5041897;28;20714;-53
2022/01/15 08:51:32;;;;;;;13.23;10.97;;;;;;;;;;5035103;28;20282;-54
2022/01/15 08:53:58;;;;;;;14.77;11.50;;;;;;;;;;5039218;28;20364;-53
2022/01/15 08:56:24;;;;;;;14.10;11.53;;;;;;;;;;5043427;28;20478;-54
2022/01/15 08:58:50;;;;;;;14.13;11.73;;;;;;;;;;5035629;28;20242;-53
2022/01/15 09:01:16;;;;;;;13.23;11.20;;;;;;;;;;5044049;28;20235;-54
2022/01/15 09:03:42;;;;;;;13.80;12.23;;;;;;;;;;5037599;28;20258;-53
2022/01/15 09:06:08;;;;;;;13.27;11.70;;;;;;;;;;5044029;28;20289;-54
2022/01/15 09:08:34;;;;;;;17.13;12.13;;;;;;;;;;5039652;28;20724;-54
2022/01/15 09:11:00;;;;;;;14.43;10.80;;;;;;;;;;5047136;28;20232;-54
2022/01/15 09:13:26;;;;;;;12.23;10.93;;;;;;;;;;5040520;28;20227;-53
2022/01/15 09:15:52;;;;;;;13.03;10.40;;;;;;;;;;5046247;28;20232;-54
2022/01/15 09:18:19;;;;;;;13.50;10.27;;;;;;;;;;5039300;28;20250;-53
2022/01/15 09:20:45;;;;;;;13.97;10.97;;;;;;;;;;5048565;28;20231;-54
2022/01/15 09:23:12;;;;;;;13.43;11.00;;;;;;;;;;5048019;28;20243;-53
2022/01/15 09:25:38;;;;;;;14.13;11.00;;;;;;;;;;5049687;28;20241;-54
2022/01/15 09:30:49;;;;;;;12.77;11.00;;;;;;;;;;5033234;28;20348;-53
2022/01/15 09:33:15;;;;;;;13.70;11.20;;;;;;;;;;5039568;28;20235;-53
2022/01/15 09:35:41;;;;;;;13.10;10.87;;;;;;;;;;5036346;28;20241;-53
2022/01/15 09:38:07;;;;;;;12.63;10.50;;;;;;;;;;5053959;28;20242;-53
2022/01/15 09:40:33;;;;;;;12.37;10.70;;;;;;;;;;5047288;28;20228;-53
2022/01/15 09:42:59;;;;;;;12.50;10.30;;;;;;;;;;5049154;28;20241;-53
2022/01/15 09:45:26;;;;;;;13.87;10.80;;;;;;;;;;5033015;28;20290;-53
2022/01/15 09:47:56;;;;;;;14.53;10.33;;;;;;;;;;5032822;28;20231;-54
2022/01/15 09:50:21;;;;;;;13.13;10.83;;;;;;;;;;5028026;28;20238;-53
2022/01/15 09:52:48;;;;;;;13.00;10.53;;;;;;;;;;5010072;28;20239;-54
2022/01/15 09:55:15;;;;;;;13.83;10.87;;;;;;;;;;5028299;28;20602;-53
2022/01/15 09:57:41;;;;;;;13.47;10.57;;;;;;;;;;5025898;28;20724;-53
2022/01/15 10:00:14;;;;;;;12.30;10.73;;;;;;;;;;5028813;28;20311;-53
2022/01/15 10:02:40;;;;;;;12.43;10.50;;;;;;;;;;5024792;28;20248;-54
2022/01/15 10:05:06;;;;;;;11.77;10.27;;;;;;;;;;5029231;28;20236;-52
2022/01/15 10:07:32;;;;;;;13.87;10.90;;;;;;;;;;5027865;28;20235;-53
2022/01/15 10:09:59;;;;;;;13.40;10.90;;;;;;;;;;5023579;28;20741;-53
2022/01/15 10:12:27;;;;;;;13.87;11.37;;;;;;;;;;5018077;28;20232;-53
2022/01/15 10:14:57;;;;;;;13.03;10.60;;;;;;;;;;5025041;28;20232;-54
2022/01/15 10:17:30;;;;;;;13.37;11.00;;;;;;;;;;5021926;28;20237;-53
2022/01/15 10:19:59;;;;;;;13.70;10.97;;;;;;;;;;5024884;28;20355;-53
2022/01/15 10:22:25;;;;;;;15.57;10.53;;;;;;;;;;5014703;28;20240;-53
2022/01/15 10:24:55;;;;;;;13.40;10.97;;;;;;;;;;5008982;28;20239;-54
2022/01/15 10:27:22;;;;;;;13.13;10.43;;;;;;;;;;5007814;28;20235;-53
2022/01/15 10:29:59;;;;;;;12.80;10.20;;;;;;;;;;5015696;28;20228;-54
2022/01/15 10:32:25;;;;;;;13.40;10.17;;;;;;;;;;5021618;28;20370;-53
2022/01/15 10:34:51;;;;;;;12.03;10.40;;;;;;;;;;5025613;28;20236;-54
2022/01/15 10:37:18;;;;;;;12.37;9.60;;;;;;;;;;5022750;28;20629;-53
2022/01/15 10:39:55;;;;;;;10.63;9.10;;;;;;;;;;5023479;28;20931;-54
2022/01/15 10:42:23;;;;;;;12.90;9.63;;;;;;;;;;5023114;28;20235;-53
2022/01/15 10:44:49;;;;;;;11.67;9.67;;;;;;;;;;5029140;28;20356;-54
2022/01/15 10:47:16;;;;;;;11.97;9.87;;;;;;;;;;5026948;28;20708;-53
2022/01/15 10:49:42;;;;;;;13.83;9.80;;;;;;;;;;5036093;28;20231;-54
2022/01/15 10:52:09;;;;;;;11.17;9.17;;;;;;;;;;5025329;28;20228;-53
2022/01/15 10:54:36;;;;;;;12.13;9.47;;;;;;;;;;5039203;28;20277;-53
2022/01/15 10:57:05;;;;;;;13.63;9.70;;;;;;;;;;5022256;28;20359;-54
2022/01/15 10:59:31;;;;;;;10.60;9.27;;;;;;;;;;5038450;28;20449;-54
2022/01/15 11:02:15;;;;;;;11.70;9.77;;;;;;;;;;5039390;28;20231;-53
2022/01/15 11:04:41;;;;;;;12.30;9.63;;;;;;;;;;5035619;28;20865;-54
2022/01/15 11:07:11;;;;;;;12.17;9.20;;;;;;;;;;5034950;28;20599;-54
2022/01/15 11:09:37;;;;;;;11.23;9.67;;;;;;;;;;5041645;28;21094;-54
2022/01/15 11:12:04;;;;;;;11.13;9.50;;;;;;;;;;5040168;28;20471;-54
2022/01/15 11:14:30;;;;;;;11.67;9.33;;;;;;;;;;5036978;28;20239;-54
2022/01/15 11:16:57;;;;;;;12.00;9.70;;;;;;;;;;5044145;28;20231;-54
2022/01/15 11:19:23;;;;;;;11.87;9.47;;;;;;;;;;5037001;28;20223;-54
2022/01/15 11:21:49;;;;;;;12.63;9.60;;;;;;;;;;5040011;28;20754;-54
2022/01/15 11:24:17;;;;;;;12.27;9.33;;;;;;;;;;5041297;28;20231;-54
2022/01/15 11:26:43;;;;;;;13.33;9.83;;;;;;;;;;5040187;28;20283;-54
2022/01/15 11:29:09;;;;;;;11.17;9.43;;;;;;;;;;5017423;28;20290;-54
2022/01/15 11:31:35;;;;;;;10.93;9.17;;;;;;;;;;5044622;28;20664;-53
2022/01/15 11:34:02;;;;;;;11.13;9.47;;;;;;;;;;5040004;28;20268;-54
2022/01/15 11:36:36;;;;;;;9.80;8.77;;;;;;;;;;5046715;28;24349;-53
2022/01/15 11:39:04;;;;;;;10.30;8.43;;;;;;;;;;5040173;28;20345;-54
2022/01/15 11:41:29;;;;;;;10.23;8.43;;;;;;;;;;5042065;28;20705;-53
2022/01/15 11:43:59;;;;;;;12.97;8.73;;;;;;;;;;5032007;28;20229;-54
2022/01/15 11:46:26;;;;;;;9.77;8.77;;;;;;;;;;5018216;28;20235;-53
2022/01/15 11:48:52;;;;;;;11.40;8.90;;;;;;;;;;5039697;28;20231;-54
2022/01/15 11:51:18;;;;;;;11.90;8.87;;;;;;;;;;5039857;28;20335;-54
2022/01/15 11:53:52;;;;;;;13.40;9.53;;;;;;;;;;5044081;28;20633;-53
2022/01/15 11:56:18;;;;;;;9.87;8.60;;;;;;;;;;5038703;28;21423;-54
2022/01/15 11:58:44;;;;;;;11.00;8.53;;;;;;;;;;5029079;28;20236;-54
2022/01/15 12:01:37;;;;;;;11.23;9.20;;;;;;;;;;5025265;28;20239;-54
2022/01/15 12:04:26;;;;;;;11.13;9.23;;;;;;;;;;5037407;28;20227;-54
2022/01/15 12:07:07;;;;;;;10.53;8.60;;;;;;;;;;5030626;28;20258;-53
2022/01/15 12:09:33;;;;;;;11.03;8.80;;;;;;;;;;5036541;28;20242;-53
2022/01/15 12:12:00;;;;;;;12.40;9.00;;;;;;;;;;5040846;27;20234;-54
2022/01/15 12:14:52;;;;;;;10.37;8.40;;;;;;;;;;5029532;28;20245;-53
2022/01/15 12:17:25;;;;;;;10.47;7.77;;;;;;;;;;5019042;28;20808;-54
2022/01/15 12:19:51;;;;;;;10.43;8.40;;;;;;;;;;5008980;28;20245;-54
2022/01/15 12:22:36;;;;;;;11.30;8.83;;;;;;;;;;5026835;28;20254;-54
2022/01/15 12:25:05;;;;;;;10.83;8.53;;;;;;;;;;5028875;28;20240;-54
2022/01/15 12:27:31;;;;;;;10.77;8.50;;;;;;;;;;5029047;28;20669;-54
2022/01/15 12:30:02;;;;;;;10.37;8.53;;;;;;;;;;5025264;28;20270;-54
2022/01/15 12:32:29;;;;;;;11.60;8.57;;;;;;;;;;5018908;28;20227;-53
2022/01/15 12:34:56;;;;;;;10.13;8.30;;;;;;;;;;5024795;28;20224;-54
2022/01/15 12:37:22;;;;;;;11.30;9.33;;;;;;;;;;5006126;28;20235;-54
2022/01/15 12:39:49;;;;;;;8.90;8.00;;;;;;;;;;5041842;28;20609;-54
2022/01/15 12:42:17;;;;;;;9.60;8.47;;;;;;;;;;5043887;28;20248;-54
2022/01/15 12:44:47;;;;;;;9.97;8.57;;;;;;;;;;5037476;28;20791;-54
2022/01/15 12:47:13;;;;;;;9.10;8.10;;;;;;;;;;5039320;28;20249;-54
2022/01/15 12:49:39;;;;;;;10.13;8.13;;;;;;;;;;5036041;28;20259;-54
2022/01/15 12:52:12;;;;;;;11.90;8.57;;;;;;;;;;5045739;28;20385;-54
2022/01/15 12:54:39;;;;;;;10.37;8.30;;;;;;;;;;5038461;28;20243;-54
2022/01/15 12:57:05;;;;;;;10.33;7.93;;;;;;;;;;5041092;28;20373;-54
2022/01/15 12:59:33;;;;;;;9.67;8.30;;;;;;;;;;5025523;28;20601;-54
2022/01/15 13:01:59;;;;;;;9.20;7.90;;;;;;;;;;5027042;28;20710;-54
2022/01/15 13:04:25;;;;;;;9.27;8.07;;;;;;;;;;5033400;28;21584;-54
2022/01/15 13:06:58;;;;;;;9.27;8.30;;;;;;;;;;5037180;28;20881;-53
2022/01/15 13:09:23;;;;;;;11.13;8.47;;;;;;;;;;5032618;28;20232;-54
2022/01/15 13:11:59;;;;;;;9.77;8.77;;;;;;;;;;5036342;28;20238;-53
2022/01/15 13:14:35;;;;;;;9.53;8.20;;;;;;;;;;5039191;28;20750;-53
2022/01/15 13:17:01;;;;;;;9.03;7.97;;;;;;;;;;5036499;28;20249;-54
2022/01/15 13:19:36;;;;;;;8.80;7.90;;;;;;;;;;5028233;28;21696;-54
2022/01/15 13:22:02;;;;;;;9.37;8.37;;;;;;;;;;5016453;28;20232;-54
2022/01/15 13:24:28;;;;;;;11.87;8.63;;;;;;;;;;5022224;28;20242;-54
2022/01/15 13:26:57;;;;;;;10.90;8.87;;;;;;;;;;5033025;28;20591;-52
2022/01/15 13:29:23;;;;;;;12.17;9.23;;;;;;;;;;5013097;28;21067;-52
2022/01/15 13:31:49;;;;;;;10.37;8.97;;;;;;;;;;5038749;28;20845;-52
2022/01/15 13:34:16;;;;;;;9.90;8.90;;;;;;;;;;5052738;28;20656;-52
2022/01/15 13:36:42;;;;;;;14.17;8.77;;;;;;;;;;5037964;28;20224;-54
2022/01/15 13:39:09;;;;;;;17.77;9.70;;;;;;;;;;5037289;28;20916;-53
2022/01/15 13:41:35;;;;;;;11.63;10.27;;;;;;;;;;5004919;28;20231;-54
2022/01/15 13:44:11;;;;;;;10.97;9.87;;;;;;;;;;5033057;28;20282;-54
2022/01/15 13:46:39;;;;;;;11.23;9.87;;;;;;;;;;5033656;28;20633;-54
2022/01/15 13:49:11;;;;;;;9.97;8.93;;;;;;;;;;5045781;28;20322;-54
2022/01/15 13:54:56;;;;;;;11.90;9.87;;;;;;;;;;5036474;28;20411;-54
2022/01/15 13:57:28;;;;;;;11.13;9.67;;;;;;;;;;5043432;28;20247;-54
2022/01/15 13:59:58;;;;;;;11.13;9.47;;;;;;;;;;5019799;28;20255;-54
2022/01/15 14:02:28;;;;;;;10.90;8.87;;;;;;;;;;5028439;28;20357;-53
2022/01/15 14:04:56;;;;;;;11.40;9.77;;;;;;;;;;5029814;28;20298;-54
2022/01/15 14:07:25;;;;;;;11.17;9.80;;;;;;;;;;5035653;28;20607;-52
2022/01/15 14:09:53;;;;;;;11.40;10.00;;;;;;;;;;5019191;28;20643;-54
2022/01/15 14:12:22;;;;;;;11.80;9.43;;;;;;;;;;5020317;28;20223;-54
2022/01/15 14:14:48;;;;;;;10.40;9.30;;;;;;;;;;5017405;28;20234;-54
2022/01/15 14:17:17;;;;;;;12.53;9.67;;;;;;;;;;5021621;28;20284;-54
2022/01/15 14:22:30;;;;;;;11.20;9.20;;;;;;;;;;5035440;28;20241;-54
2022/01/15 14:25:10;;;;;;;15.17;9.83;;;;;;;;;;5021666;28;20286;-54
2022/01/15 14:27:36;;;;;;;11.83;9.30;;;;;;;;;;5031903;28;20227;-53
2022/01/15 14:30:02;;;;;;;12.33;9.90;;;;;;;;;;5033132;28;20265;-54
2022/01/15 14:32:28;;;;;;;13.43;10.37;;;;;;;;;;5041514;28;20933;-54
2022/01/15 14:34:55;;;;;;;11.03;9.57;;;;;;;;;;5030217;28;20355;-54
2022/01/15 14:37:24;;;;;;;11.00;9.90;;;;;;;;;;5022733;28;20235;-54
2022/01/15 14:39:52;;;;;;;11.40;9.80;;;;;;;;;;5033212;28;20419;-54
2022/01/15 14:42:18;;;;;;;10.00;9.00;;;;;;;;;;5015869;28;20251;-54
2022/01/15 14:44:44;;;;;;;11.77;10.50;;;;;;;;;;5021573;28;20620;-53
2022/01/15 14:47:10;;;;;;;11.73;10.50;;;;;;;;;;5014454;28;20240;-54
2022/01/15 14:49:36;;;;;;;12.17;10.20;;;;;;;;;;5018656;28;20322;-54
2022/01/15 14:52:02;;;;;;;11.97;10.33;;;;;;;;;;5034401;28;20231;-53